sensor_id;sensor_type;location;lat;lon;timestamp;P1;durP1;ratioP1;P2;durP2;ratioP2
68310;SDS011;55157;51.036;17.058;2023-08-06T00:01:13;8.15;;;6.97;;
68310;SDS011;55157;51.036;17.058;2023-08-06T00:03:38;7.78;;;7.07;;
68310;SDS011;55157;51.036;17.058;2023-08-06T00:06:06;7.28;;;6.57;;
68310;SDS011;55157;51.036;17.058;2023-08-06T00:08:31;10.27;;;6.28;;
68310;SDS011;55157;51.036;17.058;2023-08-06T00:10:56;6.20;;;5.60;;
68310;SDS011;55157;51.036;17.058;2023-08-06T00:13:21;5.97;;;5.40;;
68310;SDS011;55157;51.036;17.058;2023-08-06T00:15:46;7.32;;;6.63;;
68310;SDS011;55157;51.036;17.058;2023-08-06T00:18:12;6.50;;;5.90;;
68310;SDS011;55157;51.036;17.058;2023-08-06T00:20:38;5.72;;;5.25;;
68310;SDS011;55157;51.036;17.058;2023-08-06T00:23:05;5.45;;;4.95;;
68310;SDS011;55157;51.036;17.058;2023-08-06T00:25:30;6.68;;;5.40;;
68310;SDS011;55157;51.036;17.058;2023-08-06T00:27:55;5.95;;;5.45;;
68310;SDS011;55157;51.036;17.058;2023-08-06T00:30:20;8.68;;;7.75;;
68310;SDS011;55157;51.036;17.058;2023-08-06T00:32:46;6.75;;;5.95;;
68310;SDS011;55157;51.036;17.058;2023-08-06T00:35:11;7.22;;;6.53;;
68310;SDS011;55157;51.036;17.058;2023-08-06T00:37:36;7.05;;;6.40;;
68310;SDS011;55157;51.036;17.058;2023-08-06T00:40:03;7.85;;;6.05;;
68310;SDS011;55157;51.036;17.058;2023-08-06T00:42:28;7.53;;;6.93;;
68310;SDS011;55157;51.036;17.058;2023-08-06T00:44:54;8.82;;;7.93;;
68310;SDS011;55157;51.036;17.058;2023-08-06T00:47:19;8.00;;;7.20;;
68310;SDS011;55157;51.036;17.058;2023-08-06T00:49:44;8.82;;;7.38;;
68310;SDS011;55157;51.036;17.058;2023-08-06T00:52:09;7.80;;;6.95;;
68310;SDS011;55157;51.036;17.058;2023-08-06T00:54:35;8.70;;;6.40;;
68310;SDS011;55157;51.036;17.058;2023-08-06T00:57:02;8.00;;;5.82;;
68310;SDS011;55157;51.036;17.058;2023-08-06T00:59:28;7.65;;;4.65;;
68310;SDS011;55157;51.036;17.058;2023-08-06T01:01:54;4.57;;;4.18;;
68310;SDS011;55157;51.036;17.058;2023-08-06T01:04:19;3.30;;;3.03;;
68310;SDS011;55157;51.036;17.058;2023-08-06T01:06:46;4.93;;;2.40;;
68310;SDS011;55157;51.036;17.058;2023-08-06T01:09:15;2.55;;;2.20;;
68310;SDS011;55157;51.036;17.058;2023-08-06T01:11:49;2.30;;;1.38;;
68310;SDS011;55157;51.036;17.058;2023-08-06T01:14:21;1.20;;;1.10;;
68310;SDS011;55157;51.036;17.058;2023-08-06T01:16:48;1.65;;;1.20;;
68310;SDS011;55157;51.036;17.058;2023-08-06T01:19:15;5.45;;;1.25;;
68310;SDS011;55157;51.036;17.058;2023-08-06T01:21:42;2.97;;;1.80;;
68310;SDS011;55157;51.036;17.058;2023-08-06T01:24:07;2.78;;;1.10;;
68310;SDS011;55157;51.036;17.058;2023-08-06T01:26:35;1.73;;;1.23;;
68310;SDS011;55157;51.036;17.058;2023-08-06T01:29:04;1.38;;;1.10;;
68310;SDS011;55157;51.036;17.058;2023-08-06T01:31:34;2.30;;;1.20;;
68310;SDS011;55157;51.036;17.058;2023-08-06T01:34:00;1.88;;;1.42;;
68310;SDS011;55157;51.036;17.058;2023-08-06T01:36:26;1.98;;;1.17;;
68310;SDS011;55157;51.036;17.058;2023-08-06T01:38:53;1.08;;;0.98;;
68310;SDS011;55157;51.036;17.058;2023-08-06T01:41:19;2.38;;;1.25;;
68310;SDS011;55157;51.036;17.058;2023-08-06T01:43:44;4.40;;;1.30;;
68310;SDS011;55157;51.036;17.058;2023-08-06T01:46:09;1.95;;;1.50;;
68310;SDS011;55157;51.036;17.058;2023-08-06T01:48:35;2.15;;;1.73;;
68310;SDS011;55157;51.036;17.058;2023-08-06T01:51:00;2.90;;;2.70;;
68310;SDS011;55157;51.036;17.058;2023-08-06T01:53:25;8.27;;;5.70;;
68310;SDS011;55157;51.036;17.058;2023-08-06T01:55:52;6.05;;;4.45;;
68310;SDS011;55157;51.036;17.058;2023-08-06T01:58:18;4.40;;;3.00;;
68310;SDS011;55157;51.036;17.058;2023-08-06T02:00:43;5.35;;;2.10;;
68310;SDS011;55157;51.036;17.058;2023-08-06T02:03:08;3.63;;;1.75;;
68310;SDS011;55157;51.036;17.058;2023-08-06T02:05:33;3.13;;;1.30;;
68310;SDS011;55157;51.036;17.058;2023-08-06T02:07:59;1.95;;;1.17;;
68310;SDS011;55157;51.036;17.058;2023-08-06T02:10:24;4.78;;;1.52;;
68310;SDS011;55157;51.036;17.058;2023-08-06T02:12:51;2.28;;;1.45;;
68310;SDS011;55157;51.036;17.058;2023-08-06T02:15:16;6.53;;;1.45;;
68310;SDS011;55157;51.036;17.058;2023-08-06T02:17:41;5.03;;;1.23;;
68310;SDS011;55157;51.036;17.058;2023-08-06T02:20:07;1.88;;;1.10;;
68310;SDS011;55157;51.036;17.058;2023-08-06T02:22:32;5.30;;;1.10;;
68310;SDS011;55157;51.036;17.058;2023-08-06T02:24:57;2.15;;;0.80;;
68310;SDS011;55157;51.036;17.058;2023-08-06T02:27:23;1.08;;;0.93;;
68310;SDS011;55157;51.036;17.058;2023-08-06T02:29:49;1.20;;;1.00;;
68310;SDS011;55157;51.036;17.058;2023-08-06T02:32:15;4.80;;;1.13;;
68310;SDS011;55157;51.036;17.058;2023-08-06T02:34:40;1.77;;;0.90;;
68310;SDS011;55157;51.036;17.058;2023-08-06T02:37:05;1.92;;;1.38;;
68310;SDS011;55157;51.036;17.058;2023-08-06T02:39:30;0.73;;;0.68;;
68310;SDS011;55157;51.036;17.058;2023-08-06T02:41:56;1.38;;;0.70;;
68310;SDS011;55157;51.036;17.058;2023-08-06T02:44:21;3.42;;;0.80;;
68310;SDS011;55157;51.036;17.058;2023-08-06T02:46:48;0.90;;;0.70;;
68310;SDS011;55157;51.036;17.058;2023-08-06T02:49:13;1.35;;;0.88;;
68310;SDS011;55157;51.036;17.058;2023-08-06T02:51:38;0.80;;;0.63;;
68310;SDS011;55157;51.036;17.058;2023-08-06T02:54:04;2.67;;;0.60;;
68310;SDS011;55157;51.036;17.058;2023-08-06T02:56:29;2.70;;;0.70;;
68310;SDS011;55157;51.036;17.058;2023-08-06T02:58:54;1.15;;;0.50;;
68310;SDS011;55157;51.036;17.058;2023-08-06T03:01:19;0.82;;;0.60;;
68310;SDS011;55157;51.036;17.058;2023-08-06T03:03:46;1.63;;;0.68;;
68310;SDS011;55157;51.036;17.058;2023-08-06T03:06:11;3.55;;;0.85;;
68310;SDS011;55157;51.036;17.058;2023-08-06T03:08:37;3.05;;;0.73;;
68310;SDS011;55157;51.036;17.058;2023-08-06T03:11:02;1.13;;;0.68;;
68310;SDS011;55157;51.036;17.058;2023-08-06T03:13:27;1.58;;;0.60;;
68310;SDS011;55157;51.036;17.058;2023-08-06T03:15:53;0.90;;;0.68;;
68310;SDS011;55157;51.036;17.058;2023-08-06T03:18:18;1.45;;;0.40;;
68310;SDS011;55157;51.036;17.058;2023-08-06T03:20:45;2.85;;;0.50;;
68310;SDS011;55157;51.036;17.058;2023-08-06T03:23:11;1.23;;;0.50;;
68310;SDS011;55157;51.036;17.058;2023-08-06T03:25:36;0.35;;;0.32;;
68310;SDS011;55157;51.036;17.058;2023-08-06T03:28:01;0.60;;;0.50;;
68310;SDS011;55157;51.036;17.058;2023-08-06T03:30:27;1.00;;;0.70;;
68310;SDS011;55157;51.036;17.058;2023-08-06T03:32:52;0.63;;;0.50;;
68310;SDS011;55157;51.036;17.058;2023-08-06T03:35:17;0.50;;;0.40;;
68310;SDS011;55157;51.036;17.058;2023-08-06T03:37:44;1.30;;;0.60;;
68310;SDS011;55157;51.036;17.058;2023-08-06T03:40:10;0.35;;;0.35;;
68310;SDS011;55157;51.036;17.058;2023-08-06T03:42:35;1.08;;;0.50;;
68310;SDS011;55157;51.036;17.058;2023-08-06T03:45:00;0.38;;;0.38;;
68310;SDS011;55157;51.036;17.058;2023-08-06T03:47:25;0.50;;;0.50;;
68310;SDS011;55157;51.036;17.058;2023-08-06T03:49:51;0.63;;;0.43;;
68310;SDS011;55157;51.036;17.058;2023-08-06T03:52:16;0.98;;;0.40;;
68310;SDS011;55157;51.036;17.058;2023-08-06T03:54:43;0.43;;;0.43;;
68310;SDS011;55157;51.036;17.058;2023-08-06T03:57:08;2.92;;;0.50;;
68310;SDS011;55157;51.036;17.058;2023-08-06T03:59:33;1.63;;;0.40;;
68310;SDS011;55157;51.036;17.058;2023-08-06T04:01:58;1.65;;;0.57;;
68310;SDS011;55157;51.036;17.058;2023-08-06T04:04:24;2.72;;;0.50;;
68310;SDS011;55157;51.036;17.058;2023-08-06T04:06:49;0.63;;;0.30;;
68310;SDS011;55157;51.036;17.058;2023-08-06T04:09:14;0.50;;;0.40;;
68310;SDS011;55157;51.036;17.058;2023-08-06T04:11:41;0.40;;;0.40;;
68310;SDS011;55157;51.036;17.058;2023-08-06T04:14:06;0.82;;;0.50;;
68310;SDS011;55157;51.036;17.058;2023-08-06T04:16:31;0.30;;;0.30;;
68310;SDS011;55157;51.036;17.058;2023-08-06T04:18:56;0.95;;;0.70;;
68310;SDS011;55157;51.036;17.058;2023-08-06T04:21:22;0.20;;;0.20;;
68310;SDS011;55157;51.036;17.058;2023-08-06T04:23:47;0.85;;;0.40;;
68310;SDS011;55157;51.036;17.058;2023-08-06T04:26:12;0.98;;;0.50;;
68310;SDS011;55157;51.036;17.058;2023-08-06T04:28:39;0.57;;;0.50;;
68310;SDS011;55157;51.036;17.058;2023-08-06T04:31:04;1.17;;;0.57;;
68310;SDS011;55157;51.036;17.058;2023-08-06T04:33:29;2.28;;;0.60;;
68310;SDS011;55157;51.036;17.058;2023-08-06T04:35:55;1.48;;;0.50;;
68310;SDS011;55157;51.036;17.058;2023-08-06T04:38:20;1.25;;;0.50;;
68310;SDS011;55157;51.036;17.058;2023-08-06T04:40:45;4.15;;;0.50;;
68310;SDS011;55157;51.036;17.058;2023-08-06T04:43:11;1.17;;;0.55;;
68310;SDS011;55157;51.036;17.058;2023-08-06T04:45:37;2.42;;;0.60;;
68310;SDS011;55157;51.036;17.058;2023-08-06T04:48:03;2.33;;;0.50;;
68310;SDS011;55157;51.036;17.058;2023-08-06T04:50:28;0.50;;;0.40;;
68310;SDS011;55157;51.036;17.058;2023-08-06T04:52:53;5.57;;;0.70;;
68310;SDS011;55157;51.036;17.058;2023-08-06T04:55:19;6.32;;;2.55;;
68310;SDS011;55157;51.036;17.058;2023-08-06T04:57:44;5.13;;;0.60;;
68310;SDS011;55157;51.036;17.058;2023-08-06T05:00:09;4.18;;;0.70;;
68310;SDS011;55157;51.036;17.058;2023-08-06T05:02:36;3.85;;;1.17;;
68310;SDS011;55157;51.036;17.058;2023-08-06T05:05:01;1.20;;;0.68;;
68310;SDS011;55157;51.036;17.058;2023-08-06T05:07:26;1.30;;;0.60;;
68310;SDS011;55157;51.036;17.058;2023-08-06T05:09:52;1.20;;;0.50;;
68310;SDS011;55157;51.036;17.058;2023-08-06T05:12:17;4.75;;;0.55;;
68310;SDS011;55157;51.036;17.058;2023-08-06T05:14:42;1.15;;;0.60;;
68310;SDS011;55157;51.036;17.058;2023-08-06T05:17:07;1.38;;;0.60;;
68310;SDS011;55157;51.036;17.058;2023-08-06T05:19:34;1.10;;;0.30;;
68310;SDS011;55157;51.036;17.058;2023-08-06T05:21:59;0.47;;;0.32;;
68310;SDS011;55157;51.036;17.058;2023-08-06T05:24:25;0.68;;;0.45;;
68310;SDS011;55157;51.036;17.058;2023-08-06T05:26:50;4.55;;;0.50;;
68310;SDS011;55157;51.036;17.058;2023-08-06T05:29:16;0.43;;;0.43;;
68310;SDS011;55157;51.036;17.058;2023-08-06T05:31:41;1.10;;;0.40;;
68310;SDS011;55157;51.036;17.058;2023-08-06T05:34:07;12.80;;;0.80;;
68310;SDS011;55157;51.036;17.058;2023-08-06T05:36:33;1.63;;;0.57;;
68310;SDS011;55157;51.036;17.058;2023-08-06T05:38:59;2.97;;;0.60;;
68310;SDS011;55157;51.036;17.058;2023-08-06T05:41:24;5.90;;;0.60;;
68310;SDS011;55157;51.036;17.058;2023-08-06T05:43:49;1.55;;;0.55;;
68310;SDS011;55157;51.036;17.058;2023-08-06T05:46:14;1.52;;;0.60;;
68310;SDS011;55157;51.036;17.058;2023-08-06T05:48:39;4.57;;;0.82;;
68310;SDS011;55157;51.036;17.058;2023-08-06T05:51:05;1.20;;;0.50;;
68310;SDS011;55157;51.036;17.058;2023-08-06T05:53:32;0.60;;;0.50;;
68310;SDS011;55157;51.036;17.058;2023-08-06T05:55:57;1.50;;;0.50;;
68310;SDS011;55157;51.036;17.058;2023-08-06T05:58:24;1.05;;;0.40;;
68310;SDS011;55157;51.036;17.058;2023-08-06T06:00:49;1.30;;;0.50;;
68310;SDS011;55157;51.036;17.058;2023-08-06T06:03:14;1.08;;;0.50;;
68310;SDS011;55157;51.036;17.058;2023-08-06T06:05:40;0.60;;;0.60;;
68310;SDS011;55157;51.036;17.058;2023-08-06T06:08:05;0.40;;;0.40;;
68310;SDS011;55157;51.036;17.058;2023-08-06T06:10:32;1.95;;;0.43;;
68310;SDS011;55157;51.036;17.058;2023-08-06T06:12:57;0.90;;;0.50;;
68310;SDS011;55157;51.036;17.058;2023-08-06T06:15:22;1.50;;;0.50;;
68310;SDS011;55157;51.036;17.058;2023-08-06T06:17:48;0.43;;;0.38;;
68310;SDS011;55157;51.036;17.058;2023-08-06T06:20:13;0.50;;;0.40;;
68310;SDS011;55157;51.036;17.058;2023-08-06T06:22:38;7.78;;;0.88;;
68310;SDS011;55157;51.036;17.058;2023-08-06T06:25:04;5.43;;;0.50;;
68310;SDS011;55157;51.036;17.058;2023-08-06T06:27:30;1.08;;;0.40;;
68310;SDS011;55157;51.036;17.058;2023-08-06T06:29:56;0.52;;;0.47;;
68310;SDS011;55157;51.036;17.058;2023-08-06T06:32:21;1.13;;;0.43;;
68310;SDS011;55157;51.036;17.058;2023-08-06T06:34:46;1.33;;;0.45;;
68310;SDS011;55157;51.036;17.058;2023-08-06T06:37:12;0.55;;;0.40;;
68310;SDS011;55157;51.036;17.058;2023-08-06T06:39:37;3.35;;;0.40;;
68310;SDS011;55157;51.036;17.058;2023-08-06T06:42:02;1.58;;;0.57;;
68310;SDS011;55157;51.036;17.058;2023-08-06T06:44:29;0.68;;;0.43;;
68310;SDS011;55157;51.036;17.058;2023-08-06T06:46:54;7.43;;;0.65;;
68310;SDS011;55157;51.036;17.058;2023-08-06T06:49:19;10.13;;;0.60;;
68310;SDS011;55157;51.036;17.058;2023-08-06T06:51:45;1.95;;;0.60;;
68310;SDS011;55157;51.036;17.058;2023-08-06T06:54:10;1.33;;;0.70;;
68310;SDS011;55157;51.036;17.058;2023-08-06T06:56:35;1.13;;;0.57;;
68310;SDS011;55157;51.036;17.058;2023-08-06T06:59:00;0.65;;;0.47;;
68310;SDS011;55157;51.036;17.058;2023-08-06T07:01:27;1.05;;;0.70;;
68310;SDS011;55157;51.036;17.058;2023-08-06T07:03:52;0.60;;;0.57;;
68310;SDS011;55157;51.036;17.058;2023-08-06T07:06:18;0.80;;;0.50;;
68310;SDS011;55157;51.036;17.058;2023-08-06T07:08:43;2.58;;;0.55;;
68310;SDS011;55157;51.036;17.058;2023-08-06T07:11:08;1.35;;;0.60;;
68310;SDS011;55157;51.036;17.058;2023-08-06T07:13:33;1.38;;;0.73;;
68310;SDS011;55157;51.036;17.058;2023-08-06T07:15:59;0.47;;;0.47;;
68310;SDS011;55157;51.036;17.058;2023-08-06T07:18:26;1.10;;;0.95;;
68310;SDS011;55157;51.036;17.058;2023-08-06T07:20:51;3.53;;;0.60;;
68310;SDS011;55157;51.036;17.058;2023-08-06T07:23:16;1.35;;;0.60;;
68310;SDS011;55157;51.036;17.058;2023-08-06T07:25:41;0.77;;;0.52;;
68310;SDS011;55157;51.036;17.058;2023-08-06T07:28:07;0.75;;;0.60;;
68310;SDS011;55157;51.036;17.058;2023-08-06T07:30:32;0.57;;;0.55;;
68310;SDS011;55157;51.036;17.058;2023-08-06T07:32:57;1.70;;;0.70;;
68310;SDS011;55157;51.036;17.058;2023-08-06T07:35:24;0.93;;;0.60;;
68310;SDS011;55157;51.036;17.058;2023-08-06T07:37:49;1.02;;;0.50;;
68310;SDS011;55157;51.036;17.058;2023-08-06T07:40:14;1.27;;;0.70;;
68310;SDS011;55157;51.036;17.058;2023-08-06T07:42:40;3.45;;;0.70;;
68310;SDS011;55157;51.036;17.058;2023-08-06T07:45:05;0.82;;;0.60;;
68310;SDS011;55157;51.036;17.058;2023-08-06T07:47:31;0.82;;;0.65;;
68310;SDS011;55157;51.036;17.058;2023-08-06T07:49:56;2.05;;;1.05;;
68310;SDS011;55157;51.036;17.058;2023-08-06T07:52:23;5.60;;;0.85;;
68310;SDS011;55157;51.036;17.058;2023-08-06T07:54:48;0.75;;;0.50;;
68310;SDS011;55157;51.036;17.058;2023-08-06T07:57:13;3.03;;;0.80;;
68310;SDS011;55157;51.036;17.058;2023-08-06T07:59:39;0.73;;;0.60;;
68310;SDS011;55157;51.036;17.058;2023-08-06T08:02:04;2.50;;;0.80;;
68310;SDS011;55157;51.036;17.058;2023-08-06T08:04:30;2.50;;;0.70;;
68310;SDS011;55157;51.036;17.058;2023-08-06T08:06:55;1.08;;;0.75;;
68310;SDS011;55157;51.036;17.058;2023-08-06T08:09:22;2.85;;;1.08;;
68310;SDS011;55157;51.036;17.058;2023-08-06T08:11:47;1.27;;;0.60;;
68310;SDS011;55157;51.036;17.058;2023-08-06T08:14:13;1.63;;;0.60;;
68310;SDS011;55157;51.036;17.058;2023-08-06T08:16:38;0.98;;;0.70;;
68310;SDS011;55157;51.036;17.058;2023-08-06T08:19:03;0.93;;;0.70;;
68310;SDS011;55157;51.036;17.058;2023-08-06T08:21:28;1.10;;;0.80;;
68310;SDS011;55157;51.036;17.058;2023-08-06T08:23:54;2.88;;;0.90;;
68310;SDS011;55157;51.036;17.058;2023-08-06T08:26:20;3.22;;;1.05;;
68310;SDS011;55157;51.036;17.058;2023-08-06T08:28:45;3.00;;;0.70;;
68310;SDS011;55157;51.036;17.058;2023-08-06T08:31:11;1.85;;;1.15;;
68310;SDS011;55157;51.036;17.058;2023-08-06T08:33:36;1.58;;;0.90;;
68310;SDS011;55157;51.036;17.058;2023-08-06T08:36:01;0.70;;;0.60;;
68310;SDS011;55157;51.036;17.058;2023-08-06T08:38:27;0.90;;;0.80;;
68310;SDS011;55157;51.036;17.058;2023-08-06T08:40:53;2.95;;;0.90;;
68310;SDS011;55157;51.036;17.058;2023-08-06T08:43:20;1.15;;;0.80;;
68310;SDS011;55157;51.036;17.058;2023-08-06T08:45:45;1.17;;;0.77;;
68310;SDS011;55157;51.036;17.058;2023-08-06T08:48:14;1.50;;;0.82;;
68310;SDS011;55157;51.036;17.058;2023-08-06T08:50:40;0.88;;;0.60;;
68310;SDS011;55157;51.036;17.058;2023-08-06T08:53:06;1.13;;;0.90;;
68310;SDS011;55157;51.036;17.058;2023-08-06T08:55:31;3.15;;;0.93;;
68310;SDS011;55157;51.036;17.058;2023-08-06T08:57:56;0.70;;;0.60;;
68310;SDS011;55157;51.036;17.058;2023-08-06T09:00:23;2.13;;;0.60;;
68310;SDS011;55157;51.036;17.058;2023-08-06T09:02:49;0.98;;;0.70;;
68310;SDS011;55157;51.036;17.058;2023-08-06T09:05:14;0.75;;;0.60;;
68310;SDS011;55157;51.036;17.058;2023-08-06T09:07:41;0.50;;;0.50;;
68310;SDS011;55157;51.036;17.058;2023-08-06T09:10:07;0.50;;;0.50;;
68310;SDS011;55157;51.036;17.058;2023-08-06T09:12:35;0.77;;;0.60;;
68310;SDS011;55157;51.036;17.058;2023-08-06T09:15:00;0.50;;;0.50;;
68310;SDS011;55157;51.036;17.058;2023-08-06T09:17:27;0.95;;;0.50;;
68310;SDS011;55157;51.036;17.058;2023-08-06T09:19:52;4.47;;;0.52;;
68310;SDS011;55157;51.036;17.058;2023-08-06T09:22:18;1.88;;;0.80;;
68310;SDS011;55157;51.036;17.058;2023-08-06T09:24:43;24.55;;;1.15;;
68310;SDS011;55157;51.036;17.058;2023-08-06T09:27:12;0.55;;;0.50;;
68310;SDS011;55157;51.036;17.058;2023-08-06T09:29:39;0.77;;;0.40;;
68310;SDS011;55157;51.036;17.058;2023-08-06T09:32:05;3.03;;;0.57;;
68310;SDS011;55157;51.036;17.058;2023-08-06T09:34:32;0.50;;;0.50;;
68310;SDS011;55157;51.036;17.058;2023-08-06T09:36:57;0.60;;;0.50;;
68310;SDS011;55157;51.036;17.058;2023-08-06T09:39:26;1.38;;;0.63;;
68310;SDS011;55157;51.036;17.058;2023-08-06T09:41:55;0.40;;;0.40;;
68310;SDS011;55157;51.036;17.058;2023-08-06T09:44:21;3.00;;;0.70;;
68310;SDS011;55157;51.036;17.058;2023-08-06T09:46:49;0.75;;;0.50;;
68310;SDS011;55157;51.036;17.058;2023-08-06T09:49:15;1.30;;;0.60;;
68310;SDS011;55157;51.036;17.058;2023-08-06T09:51:41;1.10;;;0.60;;
68310;SDS011;55157;51.036;17.058;2023-08-06T09:54:07;2.97;;;0.60;;
68310;SDS011;55157;51.036;17.058;2023-08-06T09:56:32;0.88;;;0.60;;
68310;SDS011;55157;51.036;17.058;2023-08-06T09:58:58;0.75;;;0.60;;
68310;SDS011;55157;51.036;17.058;2023-08-06T10:01:23;1.30;;;0.70;;
68310;SDS011;55157;51.036;17.058;2023-08-06T10:03:49;1.38;;;0.57;;
68310;SDS011;55157;51.036;17.058;2023-08-06T10:06:14;1.60;;;0.65;;
68310;SDS011;55157;51.036;17.058;2023-08-06T10:08:41;2.45;;;0.80;;
68310;SDS011;55157;51.036;17.058;2023-08-06T10:11:06;1.67;;;0.70;;
68310;SDS011;55157;51.036;17.058;2023-08-06T10:13:32;1.88;;;0.75;;
68310;SDS011;55157;51.036;17.058;2023-08-06T10:15:58;0.90;;;0.68;;
68310;SDS011;55157;51.036;17.058;2023-08-06T10:18:23;5.18;;;0.80;;
68310;SDS011;55157;51.036;17.058;2023-08-06T10:20:49;1.40;;;0.70;;
68310;SDS011;55157;51.036;17.058;2023-08-06T10:23:14;2.13;;;0.77;;
68310;SDS011;55157;51.036;17.058;2023-08-06T10:25:42;1.42;;;1.00;;
68310;SDS011;55157;51.036;17.058;2023-08-06T10:28:07;3.05;;;1.10;;
68310;SDS011;55157;51.036;17.058;2023-08-06T10:30:33;6.38;;;0.63;;
68310;SDS011;55157;51.036;17.058;2023-08-06T10:32:59;1.15;;;0.85;;
68310;SDS011;55157;51.036;17.058;2023-08-06T10:35:28;1.45;;;0.80;;
68310;SDS011;55157;51.036;17.058;2023-08-06T10:37:53;1.65;;;0.70;;
68310;SDS011;55157;51.036;17.058;2023-08-06T10:40:20;10.98;;;2.75;;
68310;SDS011;55157;51.036;17.058;2023-08-06T10:42:47;0.60;;;0.55;;
68310;SDS011;55157;51.036;17.058;2023-08-06T10:45:12;3.10;;;0.95;;
68310;SDS011;55157;51.036;17.058;2023-08-06T10:47:38;1.52;;;0.63;;
68310;SDS011;55157;51.036;17.058;2023-08-06T10:50:04;2.65;;;0.60;;
68310;SDS011;55157;51.036;17.058;2023-08-06T10:52:29;0.85;;;0.77;;
68310;SDS011;55157;51.036;17.058;2023-08-06T10:54:55;0.85;;;0.70;;
68310;SDS011;55157;51.036;17.058;2023-08-06T10:57:20;1.40;;;0.75;;
68310;SDS011;55157;51.036;17.058;2023-08-06T10:59:47;2.15;;;0.90;;
68310;SDS011;55157;51.036;17.058;2023-08-06T11:02:12;4.18;;;0.90;;
68310;SDS011;55157;51.036;17.058;2023-08-06T11:04:37;2.05;;;0.68;;
68310;SDS011;55157;51.036;17.058;2023-08-06T11:07:03;1.05;;;0.70;;
68310;SDS011;55157;51.036;17.058;2023-08-06T11:09:28;1.13;;;0.75;;
68310;SDS011;55157;51.036;17.058;2023-08-06T11:11:53;0.82;;;0.60;;
68310;SDS011;55157;51.036;17.058;2023-08-06T11:14:19;1.67;;;0.85;;
68310;SDS011;55157;51.036;17.058;2023-08-06T11:16:45;1.90;;;0.60;;
68310;SDS011;55157;51.036;17.058;2023-08-06T11:19:11;1.33;;;0.75;;
68310;SDS011;55157;51.036;17.058;2023-08-06T11:21:36;1.08;;;0.60;;
68310;SDS011;55157;51.036;17.058;2023-08-06T11:24:01;1.00;;;0.70;;
68310;SDS011;55157;51.036;17.058;2023-08-06T11:26:27;0.65;;;0.60;;
68310;SDS011;55157;51.036;17.058;2023-08-06T11:28:52;1.27;;;0.73;;
68310;SDS011;55157;51.036;17.058;2023-08-06T11:31:18;0.88;;;0.70;;
68310;SDS011;55157;51.036;17.058;2023-08-06T11:33:47;1.20;;;0.75;;
68310;SDS011;55157;51.036;17.058;2023-08-06T11:36:13;1.65;;;0.70;;
68310;SDS011;55157;51.036;17.058;2023-08-06T11:38:38;1.63;;;0.88;;
68310;SDS011;55157;51.036;17.058;2023-08-06T11:41:03;1.42;;;0.70;;
68310;SDS011;55157;51.036;17.058;2023-08-06T11:43:30;0.60;;;0.50;;
68310;SDS011;55157;51.036;17.058;2023-08-06T11:45:55;0.93;;;0.70;;
68310;SDS011;55157;51.036;17.058;2023-08-06T11:48:20;0.73;;;0.70;;
68310;SDS011;55157;51.036;17.058;2023-08-06T11:50:47;2.05;;;0.70;;
68310;SDS011;55157;51.036;17.058;2023-08-06T11:53:13;0.98;;;0.60;;
68310;SDS011;55157;51.036;17.058;2023-08-06T11:55:38;1.33;;;1.02;;
68310;SDS011;55157;51.036;17.058;2023-08-06T11:58:03;0.90;;;0.75;;
68310;SDS011;55157;51.036;17.058;2023-08-06T12:00:29;1.83;;;0.90;;
68310;SDS011;55157;51.036;17.058;2023-08-06T12:02:54;0.73;;;0.70;;
68310;SDS011;55157;51.036;17.058;2023-08-06T12:05:21;1.42;;;0.73;;
68310;SDS011;55157;51.036;17.058;2023-08-06T12:07:48;0.70;;;0.65;;
68310;SDS011;55157;51.036;17.058;2023-08-06T12:10:14;1.48;;;0.70;;
68310;SDS011;55157;51.036;17.058;2023-08-06T12:12:39;1.85;;;0.80;;
68310;SDS011;55157;51.036;17.058;2023-08-06T12:15:05;2.65;;;0.90;;
68310;SDS011;55157;51.036;17.058;2023-08-06T12:17:31;1.00;;;0.70;;
68310;SDS011;55157;51.036;17.058;2023-08-06T12:19:56;2.65;;;1.30;;
68310;SDS011;55157;51.036;17.058;2023-08-06T12:22:21;2.88;;;2.00;;
68310;SDS011;55157;51.036;17.058;2023-08-06T12:24:48;2.80;;;1.00;;
68310;SDS011;55157;51.036;17.058;2023-08-06T12:27:13;1.02;;;0.80;;
68310;SDS011;55157;51.036;17.058;2023-08-06T12:29:40;0.75;;;0.75;;
68310;SDS011;55157;51.036;17.058;2023-08-06T12:32:05;1.10;;;0.80;;
68310;SDS011;55157;51.036;17.058;2023-08-06T12:34:31;1.10;;;0.85;;
68310;SDS011;55157;51.036;17.058;2023-08-06T12:36:56;1.33;;;0.77;;
68310;SDS011;55157;51.036;17.058;2023-08-06T12:39:21;1.00;;;0.90;;
68310;SDS011;55157;51.036;17.058;2023-08-06T12:41:48;1.02;;;0.70;;
68310;SDS011;55157;51.036;17.058;2023-08-06T12:44:14;0.80;;;0.80;;
68310;SDS011;55157;51.036;17.058;2023-08-06T12:46:39;0.85;;;0.80;;
68310;SDS011;55157;51.036;17.058;2023-08-06T12:49:04;1.48;;;0.85;;
68310;SDS011;55157;51.036;17.058;2023-08-06T12:51:30;1.23;;;0.80;;
68310;SDS011;55157;51.036;17.058;2023-08-06T12:53:57;1.73;;;0.88;;
68310;SDS011;55157;51.036;17.058;2023-08-06T12:56:23;1.10;;;0.90;;
68310;SDS011;55157;51.036;17.058;2023-08-06T12:58:49;1.40;;;0.90;;
68310;SDS011;55157;51.036;17.058;2023-08-06T13:01:15;1.20;;;1.05;;
68310;SDS011;55157;51.036;17.058;2023-08-06T13:03:40;3.63;;;2.00;;
68310;SDS011;55157;51.036;17.058;2023-08-06T13:06:05;1.88;;;1.00;;
68310;SDS011;55157;51.036;17.058;2023-08-06T13:08:30;1.10;;;0.75;;
68310;SDS011;55157;51.036;17.058;2023-08-06T13:10:56;1.20;;;0.80;;
68310;SDS011;55157;51.036;17.058;2023-08-06T13:13:21;3.60;;;1.02;;
68310;SDS011;55157;51.036;17.058;2023-08-06T13:15:47;1.55;;;1.00;;
68310;SDS011;55157;51.036;17.058;2023-08-06T13:18:13;1.30;;;1.00;;
68310;SDS011;55157;51.036;17.058;2023-08-06T13:20:38;1.45;;;0.90;;
68310;SDS011;55157;51.036;17.058;2023-08-06T13:23:04;2.97;;;1.00;;
68310;SDS011;55157;51.036;17.058;2023-08-06T13:25:29;3.42;;;1.00;;
68310;SDS011;55157;51.036;17.058;2023-08-06T13:27:54;2.13;;;1.13;;
68310;SDS011;55157;51.036;17.058;2023-08-06T13:30:19;1.10;;;0.88;;
68310;SDS011;55157;51.036;17.058;2023-08-06T13:32:46;2.85;;;1.58;;
68310;SDS011;55157;51.036;17.058;2023-08-06T13:35:11;5.47;;;1.10;;
68310;SDS011;55157;51.036;17.058;2023-08-06T13:37:37;1.63;;;1.40;;
68310;SDS011;55157;51.036;17.058;2023-08-06T13:40:02;1.65;;;0.88;;
68310;SDS011;55157;51.036;17.058;2023-08-06T13:42:27;1.00;;;0.90;;
68310;SDS011;55157;51.036;17.058;2023-08-06T13:44:52;1.67;;;0.95;;
68310;SDS011;55157;51.036;17.058;2023-08-06T13:47:18;3.55;;;0.98;;
68310;SDS011;55157;51.036;17.058;2023-08-06T13:49:44;1.58;;;0.80;;
68310;SDS011;55157;51.036;17.058;2023-08-06T13:52:10;1.45;;;1.15;;
68310;SDS011;55157;51.036;17.058;2023-08-06T13:54:35;1.10;;;1.00;;
68310;SDS011;55157;51.036;17.058;2023-08-06T13:57:00;1.65;;;1.00;;
68310;SDS011;55157;51.036;17.058;2023-08-06T13:59:26;2.03;;;0.90;;
68310;SDS011;55157;51.036;17.058;2023-08-06T14:01:51;1.65;;;0.90;;
68310;SDS011;55157;51.036;17.058;2023-08-06T14:04:16;3.50;;;1.00;;
68310;SDS011;55157;51.036;17.058;2023-08-06T14:06:43;2.28;;;1.30;;
68310;SDS011;55157;51.036;17.058;2023-08-06T14:09:08;1.40;;;1.05;;
68310;SDS011;55157;51.036;17.058;2023-08-06T14:11:33;1.27;;;0.90;;
68310;SDS011;55157;51.036;17.058;2023-08-06T14:13:59;1.60;;;1.10;;
68310;SDS011;55157;51.036;17.058;2023-08-06T14:16:24;5.38;;;1.10;;
68310;SDS011;55157;51.036;17.058;2023-08-06T14:18:49;1.23;;;0.90;;
68310;SDS011;55157;51.036;17.058;2023-08-06T14:21:14;2.45;;;0.90;;
68310;SDS011;55157;51.036;17.058;2023-08-06T14:23:41;1.23;;;0.90;;